»·PEaware :: N7736C KSAC-KRNO

N7736C :: KSAC-KRNO

FLIGHT INFORMATION

Flight Status: Arrived
Operator: Privately registered:
United States
More flights under this callsign
Pilot: Luis U. (24404)
Aircraft: Unknown
(P28)
More flights by this aircraft type
Origin: KSAC Sacramento Executive
United States
Destination: KRNO Reno/Tahoe Intl
United States
More flights between these airports :: More routes between these airports
Route: +SWR TRUCK
File this flight plan on PilotEdge
Remarks: fsx sim
Altitude:
(Current/Filed)
11,000ft
Speed:
(Current/Filed)
100kts
Departed: 03-Mar-20 07:00 PM
Arrived: 03-Mar-20 08:20 PM
Distance/Time
Traveled:
100nm/1:19
Distance/Time
To Go:
Arrived

Flight Plot

Page will automatically refresh every two minutes.


Map Options




Map Legend


Flown Route
Filed Route
Departure Airport
Arrival Airport
Navaid (VOR, NDB)
Fix

Horizontal Profiles

Position Reports

Time Latitude Longitude Heading Altitude Ground
Speed
03-Mar-20 17:36 38.509514 -121.500164 191 26ft 0kts
03-Mar-20 17:37 38.509513 -121.500164 191 26ft 0kts
03-Mar-20 17:38 38.509512 -121.500164 191 26ft 0kts
03-Mar-20 17:39 38.509511 -121.500165 191 26ft 0kts
03-Mar-20 17:40 38.509509 -121.500165 191 26ft 0kts
03-Mar-20 17:41 38.509508 -121.500165 191 26ft 0kts
03-Mar-20 17:41 38.509507 -121.500166 191 26ft 0kts
03-Mar-20 17:43 38.509506 -121.500166 191 26ft 0kts
03-Mar-20 17:44 38.509505 -121.500166 191 26ft 0kts
03-Mar-20 17:44 38.509504 -121.500166 191 26ft 0kts
03-Mar-20 17:45 38.509503 -121.500167 191 26ft 0kts
03-Mar-20 17:47 38.509502 -121.500167 191 26ft 0kts
03-Mar-20 17:47 38.509501 -121.500167 191 26ft 0kts
03-Mar-20 17:48 38.509499 -121.500168 191 26ft 0kts
03-Mar-20 17:50 38.509498 -121.500168 191 26ft 0kts
03-Mar-20 17:50 38.509497 -121.500168 191 26ft 0kts
03-Mar-20 17:51 38.509496 -121.500168 191 26ft 0kts
03-Mar-20 17:52 38.509495 -121.500169 191 26ft 0kts
03-Mar-20 17:53 38.509494 -121.500169 191 26ft 0kts
03-Mar-20 17:54 38.509494 -121.500169 191 26ft 0kts
03-Mar-20 17:55 38.509494 -121.500169 191 26ft 0kts
03-Mar-20 17:56 38.509493 -121.500169 191 26ft 0kts
03-Mar-20 17:57 38.509492 -121.500169 191 26ft 0kts
03-Mar-20 17:58 38.509491 -121.500170 191 26ft 0kts
03-Mar-20 17:59 38.509490 -121.500170 191 26ft 0kts
03-Mar-20 18:00 38.509490 -121.500170 191 26ft 0kts
03-Mar-20 18:01 38.509489 -121.500170 191 26ft 0kts
03-Mar-20 18:02 38.509488 -121.500170 191 26ft 0kts
03-Mar-20 18:03 38.509487 -121.500171 191 26ft 0kts
03-Mar-20 18:04 38.509485 -121.500171 191 26ft 0kts
03-Mar-20 18:05 38.509483 -121.500172 191 26ft 0kts
03-Mar-20 18:06 38.509482 -121.500172 191 26ft 0kts
03-Mar-20 18:07 38.509480 -121.500173 191 26ft 0kts
03-Mar-20 18:08 38.509478 -121.500173 191 26ft 0kts
03-Mar-20 18:09 38.509476 -121.500174 191 26ft 0kts
03-Mar-20 18:10 38.509475 -121.500174 191 26ft 0kts
03-Mar-20 18:11 38.509473 -121.500174 191 26ft 0kts
03-Mar-20 18:12 38.509472 -121.500175 191 26ft 0kts
03-Mar-20 18:13 38.509470 -121.500175 191 26ft 0kts
03-Mar-20 18:14 38.509469 -121.500175 191 26ft 0kts
03-Mar-20 18:15 38.509469 -121.500175 191 26ft 0kts
03-Mar-20 18:16 38.509469 -121.500175 191 26ft 0kts
03-Mar-20 18:17 38.509469 -121.500175 191 26ft 0kts
03-Mar-20 18:18 38.509469 -121.500175 191 26ft 0kts
03-Mar-20 18:19 38.509469 -121.500175 191 26ft 0kts
03-Mar-20 18:20 38.509469 -121.500175 191 26ft 0kts
03-Mar-20 18:21 38.509468 -121.500176 191 26ft 0kts
03-Mar-20 18:22 38.509466 -121.500176 191 26ft 0kts
03-Mar-20 18:23 38.509465 -121.500176 191 26ft 0kts
03-Mar-20 18:24 38.509463 -121.500177 191 26ft 0kts
03-Mar-20 18:25 38.509462 -121.500177 191 26ft 0kts
03-Mar-20 18:26 38.509461 -121.500177 191 26ft 0kts
03-Mar-20 18:27 38.509461 -121.500177 191 26ft 0kts
03-Mar-20 18:28 38.509461 -121.500177 191 26ft 0kts
03-Mar-20 18:29 38.509461 -121.500177 191 26ft 0kts
03-Mar-20 18:30 38.509461 -121.500177 191 26ft 0kts
03-Mar-20 18:31 38.509461 -121.500177 191 26ft 0kts
03-Mar-20 18:32 38.509461 -121.500177 191 26ft 0kts
03-Mar-20 18:33 38.509461 -121.500177 191 26ft 0kts
03-Mar-20 18:34 38.509461 -121.500177 191 26ft 0kts
03-Mar-20 18:35 38.508948 -121.500544 289 26ft 0kts
03-Mar-20 18:36 38.508948 -121.500546 289 26ft 0kts
03-Mar-20 18:37 38.508949 -121.500548 289 26ft 0kts
03-Mar-20 18:38 38.508950 -121.500551 289 26ft 0kts
03-Mar-20 18:39 38.508951 -121.500554 289 26ft 0kts
03-Mar-20 18:40 38.508951 -121.500556 289 26ft 0kts
03-Mar-20 18:41 38.508952 -121.500559 289 26ft 0kts
03-Mar-20 18:42 38.508953 -121.500561 289 26ft 0kts
03-Mar-20 18:43 38.508953 -121.500564 289 26ft 0kts
03-Mar-20 18:44 38.508954 -121.500566 289 26ft 0kts
03-Mar-20 18:45 38.508955 -121.500569 289 26ft 0kts
03-Mar-20 18:46 38.508956 -121.500571 289 26ft 0kts
03-Mar-20 18:47 38.508956 -121.500574 289 26ft 0kts
03-Mar-20 18:48 38.508957 -121.500577 289 26ft 0kts
03-Mar-20 18:49 38.508957 -121.500578 289 26ft 0kts
03-Mar-20 18:50 38.508958 -121.500580 289 26ft 0kts
03-Mar-20 18:51 38.511523 -121.497941 26 26ft 5kts
03-Mar-20 18:52 38.513225 -121.495698 34 26ft 16kts
03-Mar-20 18:53 38.516887 -121.492679 32 26ft 32kts
03-Mar-20 18:54 38.519243 -121.490345 117 26ft 0kts
03-Mar-20 18:55 38.519239 -121.490336 117 26ft 0kts
03-Mar-20 18:56 38.519235 -121.490326 117 26ft 0kts
03-Mar-20 18:57 38.518609 -121.489618 218 26ft 9kts
03-Mar-20 18:58 38.518475 -121.489730 211 26ft 0kts
03-Mar-20 18:59 38.501963 -121.503838 202 628ft 94kts
03-Mar-20 19:00 38.481048 -121.491270 105 1705ft 93kts
03-Mar-20 19:01 38.474556 -121.460198 112 2092ft 92kts
03-Mar-20 19:02 38.472417 -121.428603 71 3206ft 93kts
03-Mar-20 19:03 38.487928 -121.402337 29 4286ft 80kts
03-Mar-20 19:04 38.507171 -121.384903 27 5263ft 81kts
03-Mar-20 19:05 38.529280 -121.375000 27 6013ft 84kts
03-Mar-20 19:06 38.551930 -121.364272 32 6660ft 88kts
03-Mar-20 19:07 38.576050 -121.352477 37 7134ft 96kts
03-Mar-20 19:08 38.600432 -121.335772 36 7602ft 95kts
03-Mar-20 19:09 38.622581 -121.317442 57 8163ft 93kts
03-Mar-20 19:10 38.638429 -121.292316 51 8683ft 95kts
03-Mar-20 19:11 38.658826 -121.269604 46 9123ft 99kts
03-Mar-20 19:12 38.680787 -121.246250 52 9446ft 104kts
03-Mar-20 19:13 38.701294 -121.221065 47 9856ft 102kts
03-Mar-20 19:14 38.718623 -121.202617 36 10503ft 62kts
03-Mar-20 19:15 38.730891 -121.187024 42 10786ft 63kts
03-Mar-20 19:16 38.739372 -121.166372 48 11058ft 61kts
03-Mar-20 19:17 38.751728 -121.149878 38 11260ft 65kts
03-Mar-20 19:18 38.763863 -121.131673 44 11415ft 67kts
03-Mar-20 19:19 38.776226 -121.113004 42 11493ft 70kts
03-Mar-20 19:20 38.789174 -121.094467 40 11536ft 70kts
03-Mar-20 19:21 38.805341 -121.078644 38 11462ft 71kts
03-Mar-20 19:22 38.819893 -121.061641 46 11495ft 70kts
03-Mar-20 19:23 38.830735 -121.040484 51 11521ft 71kts
03-Mar-20 19:24 38.837484 -121.016736 69 11490ft 71kts
03-Mar-20 19:25 38.845061 -120.995065 37 11250ft 68kts
03-Mar-20 19:26 38.853844 -120.983148 48 11042ft 67kts
03-Mar-20 19:27 38.854136 -120.982575 50 11035ft 67kts
03-Mar-20 19:36 38.925224 -120.800174 60 10489ft 65kts
03-Mar-20 19:37 38.935719 -120.780427 58 10477ft 67kts
03-Mar-20 19:38 38.949830 -120.763658 52 10470ft 69kts
03-Mar-20 19:39 38.962106 -120.745112 54 10478ft 68kts
03-Mar-20 19:40 38.977851 -120.730355 41 10476ft 72kts
03-Mar-20 19:41 38.989474 -120.711267 59 10485ft 68kts
03-Mar-20 19:42 39.001033 -120.690653 66 10460ft 70kts
03-Mar-20 19:43 39.010380 -120.667193 74 10610ft 77kts
03-Mar-20 19:44 39.021122 -120.639637 68 10406ft 90kts
03-Mar-20 19:45 39.037266 -120.614700 62 10376ft 77kts
03-Mar-20 19:46 39.048461 -120.593331 71 10618ft 79kts
03-Mar-20 19:47 39.059664 -120.568220 74 10659ft 83kts
03-Mar-20 19:48 39.069707 -120.540146 63 10527ft 91kts
03-Mar-20 19:49 39.081596 -120.512802 74 10467ft 86kts
03-Mar-20 19:50 39.091693 -120.486077 78 10520ft 81kts
03-Mar-20 19:51 39.100865 -120.458192 75 10547ft 95kts
03-Mar-20 19:52 39.115580 -120.426585 68 10572ft 115kts
03-Mar-20 19:53 39.128147 -120.388412 69 10459ft 116kts
03-Mar-20 19:53 39.138780 -120.357433 65 10466ft 112kts
03-Mar-20 19:54 39.153167 -120.321687 70 10486ft 112kts
03-Mar-20 19:56 39.175267 -120.283894 50 10511ft 114kts
03-Mar-20 19:56 39.197195 -120.266322 14 10581ft 110kts
03-Mar-20 19:57 39.226501 -120.255366 351 10586ft 115kts
03-Mar-20 19:59 39.261310 -120.241232 40 10468ft 112kts
03-Mar-20 19:59 39.283802 -120.226717 34 10582ft 107kts
03-Mar-20 20:00 39.311634 -120.211459 32 10479ft 107kts
03-Mar-20 20:01 39.340680 -120.202574 21 10480ft 104kts
03-Mar-20 20:02 39.369259 -120.196921 24 10563ft 100kts
03-Mar-20 20:03 39.397120 -120.191835 22 10630ft 99kts
03-Mar-20 20:04 39.424156 -120.182981 23 10578ft 105kts
03-Mar-20 20:05 39.446143 -120.164331 58 10531ft 92kts
03-Mar-20 20:06 39.463232 -120.139144 58 10414ft 94kts
03-Mar-20 20:07 39.478270 -120.112560 53 10164ft 97kts
03-Mar-20 20:08 39.499842 -120.091781 60 9951ft 91kts
03-Mar-20 20:09 39.514843 -120.067424 61 9972ft 86kts
03-Mar-20 20:10 39.530320 -120.044091 58 10008ft 83kts
03-Mar-20 20:11 39.536489 -120.017975 103 9932ft 79kts
03-Mar-20 20:12 39.532809 -119.987506 100 9472ft 104kts
03-Mar-20 20:13 39.524503 -119.950380 97 9244ft 108kts
03-Mar-20 20:14 39.521246 -119.911283 69 8772ft 118kts
03-Mar-20 20:15 39.527634 -119.870701 74 8387ft 115kts
03-Mar-20 20:16 39.532299 -119.824481 74 7181ft 143kts
03-Mar-20 20:17 39.540486 -119.777134 87 5799ft 125kts
03-Mar-20 20:18 39.519571 -119.766388 189 4709ft 89kts
03-Mar-20 20:19 39.506487 -119.766025 84 4417ft 1kts
03-Mar-20 20:20 39.504987 -119.765693 180 4417ft 22kts

Navigation Log

Ident Type
Flight plan parsing failed, navigation log unavailable